Aérodrome :
LOGIN :

S'inscrire | Disclaimer

   EN    FR    IT 

 










Légende :    VFR   VFR Marginal   IFR   IFR Intensif   IFR Très Intensif
Visi : 
Plafond : 
>= 8 km
>= 3000ft
5 à 8 km
1000 à 3000 ft
1500m à 5 km
500 à 1000 ft
800 à 1500m
200 à 500 ft
< 800m
< 200 ft
Symboles :   Orages  Brouillard  Fortes neiges  Fortes précipitations  Vent > 20 kt
SIGMETs :   Divers  Orages  Givrage  Turbulence  Onde Orograph.  Cendres Volcan.







- Altitude de l'aérodrome : 14 ft
- Code IATA : BRE


EDDW - Bremen Neuenland

DERNIER METAR :
  • 181050Z 07005KT 050V110 CAVOK 15/10 Q1015 NOSIG

METARs EXPIRÉS :
  • 181020Z 09005KT 050V130 CAVOK 14/10 Q1015 NOSIG
  • 180950Z 07005KT CAVOK 14/11 Q1015 NOSIG
  • 180920Z 08005KT CAVOK 13/11 Q1015 NOSIG
  • 180850Z 07003KT CAVOK 13/11 Q1015 NOSIG
  • 180820Z 06003KT 040V100 9999 FEW048 SCT250 11/10 Q1015 NOSIG

TAF TAF EDDW
Valide du 18 à 06h jusqu'au 19 à 06h UTC


180500Z 1806/1906 11004KT 8000 SCT030
TEMPO 1806/1808 1200 BCFG
BECMG 1820/1822 2500 BR
TEMPO 1822/1906 0400 FG OVC001
Pas de NOTAMs connus pour ce terrain.



MET'MAP, la Météo Aéronautique d'un coup d'oeil ! - Copyright ORBIFLY Décembre 2007 - Disclaimer

ORBIFLY MET'MAP TEAM :

Programmation & Développement : Alexandra Zaïnal
Conception & Développement : Baudouin d'Aumeries
Co-Programmation & Développement : Marc-Olivier Méhu
Soutien technique & logistique : Manuel Goepfert

Contact : metmap@orbifly.com




SOURCES & CREDITS :

   NOAA